Current Weather

Stafford Rgnl

Stafford, Virginia (KRMN)

Report from: Wednesday, April 24, 2024 2:55 PM EDT
Current time: Wednesday, April 24, 2024 3:25 PM EDT

Nearby weather – Weather history – Daily summaries
Weather forecast

Temperature23.6°C (74.5°F)
Dew point-2.0°C (28.4°F)
Winds 6 kts (3.1 m/s, 6.9 mph) West-Northwest (290°)
Visibility10 mi. (16.1 km)
Clouds Scattered clouds 8,500 ft. (2,591 m)
Altimeter29.92 in.Hg (1013 mB)
Relative humidity18 %
Density altitude1,087 ft. (331 m)
Remarks Fully automated report
Automated weather observing station with precipitation discriminator
Flight conditions Visual Meteorological Conditions
Raw dataKRMN 241855Z AUTO 29006KT 10SM SCT085 24/M02 A2992 RMK AO2 T02361020
An error has occurred. This application may no longer respond until reloaded. Reload 🗙